createdAt,value
2023-05-17T00:02:57.413Z,96892.84
2023-05-17T00:08:18.291Z,96896.25
2023-05-17T00:13:39.929Z,96897.59
2023-05-17T00:19:00.866Z,96896.47
2023-05-17T00:24:21.956Z,96905.94
2023-05-17T00:29:42.830Z,96907.44
2023-05-17T00:35:05.928Z,96889.75
2023-05-17T00:40:26.998Z,96909.91
2023-05-17T00:45:50.305Z,96912.31
2023-05-17T00:51:13.469Z,96928.03
2023-05-17T00:56:34.925Z,96929.25
2023-05-17T01:01:56.515Z,96936.38
2023-05-17T01:07:18.099Z,96941.72
2023-05-17T01:13:00.816Z,96943.63
2023-05-17T01:18:40.716Z,96923.56
2023-05-17T01:24:23.966Z,96936.13
2023-05-17T01:29:45.405Z,96943.00
2023-05-17T01:35:06.558Z,96939.94
2023-05-17T01:40:33.156Z,96941.97
2023-05-17T01:46:02.142Z,96948.13
2023-05-17T01:51:28.749Z,96941.41
2023-05-17T01:56:58.076Z,96942.31
2023-05-17T02:02:22.535Z,96942.56
2023-05-17T02:07:43.929Z,96956.78
2023-05-17T02:13:05.208Z,96947.81
2023-05-17T02:18:27.017Z,96954.34
2023-05-17T02:23:48.257Z,96958.78
2023-05-17T02:29:11.246Z,96971.34
2023-05-17T02:34:32.141Z,96979.00
2023-05-17T02:39:54.041Z,96979.00
2023-05-17T02:45:14.863Z,96975.84
2023-05-17T02:50:35.873Z,96992.94
2023-05-17T02:55:58.215Z,96990.59
2023-05-17T03:01:19.237Z,97002.06
2023-05-17T03:06:40.758Z,96986.13
2023-05-17T03:12:03.753Z,96995.25
2023-05-17T03:17:27.477Z,96993.03
2023-05-17T03:22:49.004Z,97003.75
2023-05-17T03:28:09.934Z,97014.88
2023-05-17T03:33:32.197Z,97020.78
2023-05-17T03:38:53.433Z,97021.00
2023-05-17T03:44:15.736Z,97023.84
2023-05-17T03:49:37.123Z,97046.41
2023-05-17T03:54:58.533Z,97048.75
2023-05-17T04:00:23.975Z,97049.84
2023-05-17T04:05:50.976Z,97047.84
2023-05-17T04:11:14.077Z,97039.81
2023-05-17T04:16:35.642Z,97049.72
2023-05-17T04:22:00.351Z,97076.63
2023-05-17T04:27:22.727Z,97071.00
2023-05-17T04:32:44.063Z,97078.44
2023-05-17T04:38:06.119Z,97095.19
2023-05-17T04:43:27.362Z,97102.97
2023-05-17T04:48:48.574Z,97113.81
2023-05-17T04:54:10.166Z,97107.94
2023-05-17T04:59:31.565Z,97123.25
2023-05-17T05:04:52.321Z,97142.50
2023-05-17T05:10:14.829Z,97141.81
2023-05-17T05:15:36.842Z,97154.94
2023-05-17T05:20:58.195Z,97159.59
2023-05-17T05:26:23.347Z,97163.28
2023-05-17T05:31:50.550Z,97166.31
2023-05-17T05:37:12.579Z,97170.75
2023-05-17T05:42:36.402Z,97171.53
2023-05-17T05:48:00.733Z,97182.94
2023-05-17T05:53:24.213Z,97184.06
2023-05-17T05:58:52.387Z,97186.38
2023-05-17T06:04:16.229Z,97189.47
2023-05-17T06:09:37.145Z,97185.03
2023-05-17T06:15:00.460Z,97200.38
2023-05-17T06:20:21.488Z,97210.34
2023-05-17T06:25:44.798Z,97207.44
2023-05-17T06:31:06.087Z,97212.88
2023-05-17T06:36:27.221Z,97210.22
2023-05-17T06:41:49.877Z,97216.81
2023-05-17T06:47:14.034Z,97212.47
2023-05-17T06:52:35.865Z,97221.91
2023-05-17T06:57:56.794Z,97232.16
2023-05-17T07:03:17.772Z,97232.59
2023-05-17T07:08:40.521Z,97212.22
2023-05-17T07:14:05.222Z,97223.66
2023-05-17T07:19:28.997Z,97223.06
2023-05-17T07:24:50.093Z,97229.97
2023-05-17T07:30:12.808Z,97230.97
2023-05-17T07:35:34.803Z,97239.09
2023-05-17T07:40:55.859Z,97232.50
2023-05-17T07:46:17.789Z,97238.41
2023-05-17T07:51:38.858Z,97224.94
2023-05-17T07:56:59.870Z,97231.28
2023-05-17T08:02:21.001Z,97236.59
2023-05-17T08:07:42.208Z,97245.13
2023-05-17T08:13:04.762Z,97237.69
2023-05-17T08:18:27.018Z,97247.28
2023-05-17T08:23:50.555Z,97261.13
2023-05-17T08:29:13.496Z,97257.38
2023-05-17T08:34:36.883Z,97254.34
2023-05-17T08:39:58.022Z,97262.06
2023-05-17T08:45:19.156Z,97268.84
2023-05-17T08:50:39.992Z,97255.09
2023-05-17T08:56:02.741Z,97262.09
2023-05-17T09:01:25.943Z,97254.09
2023-05-17T09:06:47.623Z,97265.41
2023-05-17T09:12:08.960Z,97265.88
2023-05-17T09:17:30.034Z,97274.78
2023-05-17T09:22:52.117Z,97277.72
2023-05-17T09:28:13.368Z,97282.94
2023-05-17T09:33:34.505Z,97291.88
2023-05-17T09:39:01.843Z,97289.69
2023-05-17T09:44:25.456Z,97291.59
2023-05-17T09:49:46.808Z,97284.34
2023-05-17T09:55:07.856Z,97283.44
2023-05-17T10:00:29.991Z,97289.19
2023-05-17T10:05:54.882Z,97290.03
2023-05-17T10:11:16.542Z,97279.81
2023-05-17T10:16:41.060Z,97279.56
2023-05-17T10:22:19.015Z,97287.00
2023-05-17T10:27:43.719Z,97282.59
2023-05-17T10:33:05.756Z,97288.63
2023-05-17T10:38:38.811Z,97293.81
2023-05-17T10:44:05.683Z,97286.25
2023-05-17T10:49:29.959Z,97285.47
2023-05-17T10:54:52.247Z,97287.13
2023-05-17T11:00:20.947Z,97276.00
2023-05-17T11:05:44.906Z,97281.75
2023-05-17T11:11:19.031Z,97287.84
2023-05-17T11:16:39.935Z,97292.25
2023-05-17T11:22:12.349Z,97278.28
2023-05-17T11:27:39.534Z,97274.44
2023-05-17T11:33:09.059Z,97274.47
2023-05-17T11:38:38.097Z,97276.69
2023-05-17T11:43:59.166Z,97280.25
2023-05-17T11:49:34.407Z,97289.06
2023-05-17T11:55:00.747Z,97292.53
2023-05-17T12:00:28.844Z,97302.84
2023-05-17T12:05:51.955Z,97293.34
2023-05-17T12:11:16.921Z,97307.09
2023-05-17T12:16:42.041Z,97312.31
2023-05-17T12:22:12.816Z,97325.25
2023-05-17T12:27:34.031Z,97323.22
2023-05-17T12:32:54.849Z,97325.13
2023-05-17T12:38:16.554Z,97323.31
2023-05-17T12:43:39.340Z,97319.09
2023-05-17T12:49:18.882Z,97317.44
2023-05-17T12:54:40.082Z,97310.41
2023-05-17T13:00:07.830Z,97320.59
2023-05-17T13:05:28.779Z,97317.97
2023-05-17T13:10:49.703Z,97308.63
2023-05-17T13:16:10.499Z,97318.38
2023-05-17T13:21:31.738Z,97320.03
2023-05-17T13:26:52.415Z,97304.06
2023-05-17T13:32:13.932Z,97291.66
2023-05-17T13:37:36.086Z,97302.81
2023-05-17T13:42:57.230Z,97310.34
2023-05-17T13:48:18.324Z,97317.59
2023-05-17T13:53:39.451Z,97319.25
2023-05-17T13:59:00.941Z,97313.41
2023-05-17T14:04:21.979Z,97311.63
2023-05-17T14:09:43.708Z,97309.72
2023-05-17T14:15:05.014Z,97322.63
2023-05-17T14:20:26.102Z,97313.72
2023-05-17T14:25:49.176Z,97328.84
2023-05-17T14:31:11.412Z,97331.06
2023-05-17T14:36:36.261Z,97333.09
2023-05-17T14:41:58.800Z,97349.50
2023-05-17T14:47:21.753Z,97335.44
2023-05-17T14:52:42.922Z,97342.06
2023-05-17T14:58:04.044Z,97343.03
2023-05-17T15:03:26.116Z,97356.91
2023-05-17T15:08:47.353Z,97360.63
2023-05-17T15:14:08.081Z,97365.88
2023-05-17T15:19:29.117Z,97351.13
2023-05-17T15:24:50.216Z,97360.22
2023-05-17T15:30:13.481Z,97359.53
2023-05-17T15:35:34.392Z,97349.91
2023-05-17T15:41:05.015Z,97367.25
2023-05-17T15:46:26.178Z,97371.50
2023-05-17T15:51:47.259Z,97375.78
2023-05-17T15:57:09.055Z,97370.41
2023-05-17T16:02:30.408Z,97371.38
2023-05-17T16:07:52.131Z,97378.53
2023-05-17T16:13:13.108Z,97387.22
2023-05-17T16:18:34.091Z,97384.72
2023-05-17T16:23:55.502Z,97392.44
2023-05-17T16:29:17.025Z,97396.56
2023-05-17T16:34:37.962Z,97412.53
2023-05-17T16:39:58.871Z,97411.84
2023-05-17T16:45:19.907Z,97416.38
2023-05-17T16:50:42.138Z,97416.69
2023-05-17T16:56:03.474Z,97420.78
2023-05-17T17:01:25.279Z,97422.97
2023-05-17T17:06:46.053Z,97410.44
2023-05-17T17:12:20.460Z,97411.41
2023-05-17T17:17:45.706Z,97414.97
2023-05-17T17:23:07.409Z,97424.72
2023-05-17T17:28:28.387Z,97431.75
2023-05-17T17:33:51.555Z,97434.63
2023-05-17T17:39:14.717Z,97446.25
2023-05-17T17:44:35.964Z,97446.09
2023-05-17T17:49:57.527Z,97447.22
2023-05-17T17:55:18.960Z,97448.66
2023-05-17T18:00:40.217Z,97456.38
2023-05-17T18:06:01.324Z,97457.75
2023-05-17T18:11:23.331Z,97456.56
2023-05-17T18:16:44.540Z,97464.50
2023-05-17T18:22:06.219Z,97472.13
2023-05-17T18:27:27.366Z,97484.94
2023-05-17T18:32:48.434Z,97490.69
2023-05-17T18:38:10.209Z,97493.19
2023-05-17T18:43:32.027Z,97509.59
2023-05-17T18:48:52.901Z,97512.06
2023-05-17T18:54:13.837Z,97514.81
2023-05-17T18:59:34.964Z,97514.34
2023-05-17T19:04:56.160Z,97513.66
2023-05-17T19:10:18.522Z,97513.47
2023-05-17T19:15:41.853Z,97520.44
2023-05-17T19:21:03.497Z,97528.53
2023-05-17T19:26:24.687Z,97541.03
2023-05-17T19:31:45.601Z,97538.91
2023-05-17T19:37:06.708Z,97542.75
2023-05-17T19:42:27.759Z,97540.78
2023-05-17T19:47:48.905Z,97540.31
2023-05-17T19:53:10.102Z,97545.16
2023-05-17T19:58:32.421Z,97543.06
2023-05-17T20:03:53.595Z,97538.31
2023-05-17T20:09:15.245Z,97544.13
2023-05-17T20:14:37.863Z,97538.03
2023-05-17T20:19:59.052Z,97537.00
2023-05-17T20:25:20.703Z,97540.94
2023-05-17T20:30:44.635Z,97539.91
2023-05-17T20:36:06.035Z,97556.97
2023-05-17T20:41:27.423Z,97551.19
2023-05-17T20:46:49.210Z,97551.81
2023-05-17T20:52:10.048Z,97553.75
2023-05-17T20:57:31.390Z,97558.69
2023-05-17T21:02:52.752Z,97559.41
2023-05-17T21:08:14.127Z,97558.97
2023-05-17T21:13:35.144Z,97558.97
2023-05-17T21:18:56.398Z,97560.41
2023-05-17T21:24:17.250Z,97557.31
2023-05-17T21:29:40.413Z,97556.00
2023-05-17T21:35:01.460Z,97550.84
2023-05-17T21:40:22.482Z,97558.38
2023-05-17T21:45:44.675Z,97561.63
2023-05-17T21:51:05.991Z,97561.88
2023-05-17T21:56:27.183Z,97553.16
2023-05-17T22:01:48.410Z,97563.59
2023-05-17T22:07:11.065Z,97567.56
2023-05-17T22:12:35.051Z,97561.25
2023-05-17T22:17:56.364Z,97564.09
2023-05-17T22:23:17.551Z,97564.09
2023-05-17T22:28:38.254Z,97569.41
2023-05-17T22:33:59.023Z,97571.78
2023-05-17T22:39:20.089Z,97566.34
2023-05-17T22:44:41.171Z,97564.47
2023-05-17T22:50:03.164Z,97574.69
2023-05-17T22:55:25.481Z,97567.66
2023-05-17T23:00:47.405Z,97567.97
2023-05-17T23:06:08.768Z,97567.03
2023-05-17T23:11:30.123Z,97565.38
2023-05-17T23:16:50.958Z,97566.69
2023-05-17T23:22:12.212Z,97562.06
2023-05-17T23:27:33.720Z,97559.56
2023-05-17T23:32:55.469Z,97564.19
2023-05-17T23:38:19.302Z,97559.94
2023-05-17T23:43:40.931Z,97555.66
2023-05-17T23:49:02.472Z,97557.06
2023-05-17T23:54:24.431Z,97552.22
2023-05-17T23:59:45.268Z,97548.28
